Alton, Texas
Current Conditions -  °F | °C
As of 8:56 AM on Friday 19 Dec 2014 (Local Time) from KMFE Reporting Station
Haze Haze  
Wind Chill: 64°   Ceiling: 900
Heat Index: 64°   Visibility: 5mi
Dew Point: 62°   Wind: 6mph
Humidity: 93%   Direction: 280°W
Pressure: 30.02"   Gusts: NA
Location:  26.2155°N, 98.325°W
Report Text: KMFE 191456Z 28005KT 5SM BR BKN009 OVC013 18/17 A3002 RMK AO2 T01780167
Loading
Personal Weather Stations






























Interactive Weather Map New forecast layout! Learn more

10-Day Weather Forecast

Advertisements
Track Severe Weather on mobile